Weather reports worldwide

Advertisment
Navacerrada, Spain (8215): temperature & dewpoint: 11.08.2018 01:00:00 - 17.08.2018 01:00:00 (CEST)Navacerrada, Spain (8215): wind speed: 11.08.2018 01:00:00 - 17.08.2018 01:00:00 (CEST)Navacerrada, Spain (8215): wind direction: 11.08.2018 01:00:00 - 17.08.2018 01:00:00 (CEST)Navacerrada, Spain (8215): visibility: 11.08.2018 01:00:00 - 17.08.2018 01:00:00 (CEST)Navacerrada, Spain (8215): precipitation: 11.08.2018 01:00:00 - 17.08.2018 01:00:00 (CEST)
Date & Time tt [°C] td [°C] ff [km/h] ff [kn] dd vv [km] rr [mm]
17.08.2018 01:00:00 15,1 6,6 8 4 E 20 0,0
17.08.2018 00:00:00 16,0 6,1 9 5 ENE 20 0,0
16.08.2018 23:00:00 17,0 4,3 5 3 NNE 20 -
16.08.2018 22:00:00 17,0 4,6 11 6 S 20 0,0
16.08.2018 21:00:00 19,3 3,8 8 4 W 20 0,0
16.08.2018 20:00:00 21,2 3,9 8 4 WNW 20 -
16.08.2018 19:00:00 20,9 4,0 4 2 W 20 0,0
16.08.2018 18:00:00 20,7 4,3 8 4 NW 20 0,0
16.08.2018 17:00:00 20,5 4,5 8 4 NW 15 -
16.08.2018 16:00:00 21,6 4,6 5 3 N 20 0,0
16.08.2018 15:00:00 21,9 8,7 13 7 SW 20 0,0
16.08.2018 14:00:00 21,6 12,2 15 8 S 15 -
16.08.2018 13:00:00 20,0 12,2 9 5 SSE 17 0,0
16.08.2018 12:00:00 21,2 6,3 9 5 W 20 0,0
16.08.2018 11:00:00 21,2 2,4 4 2 N 20 -
16.08.2018 10:00:00 20,1 1,5 4 2 NNW 20 0,0
16.08.2018 09:00:00 18,1 1,6 5 3 N 20 0,0
16.08.2018 08:00:00 16,0 2,1 9 5 N 20 -
16.08.2018 07:00:00 16,1 1,4 9 5 N 20 0,0
16.08.2018 06:00:00 16,3 1,6 8 4 N 20 0,0
16.08.2018 05:00:00 16,2 2,2 5 3 NNE 20 -
16.08.2018 04:00:00 16,5 3,2 8 4 NNW 20 0,0
16.08.2018 03:00:00 17,2 3,1 5 3 WNW 20 0,0
16.08.2018 02:00:00 17,3 2,8 5 3 NW 20 -
16.08.2018 01:00:00 17,3 2,1 8 4 NNE 20 0,0
16.08.2018 00:00:00 17,0 2,2 5 3 NNE 20 0,0
15.08.2018 23:00:00 17,2 2,7 9 5 N 20 -
15.08.2018 22:00:00 17,5 3,0 11 6 N 20 0,0
15.08.2018 21:00:00 19,6 4,5 9 5 NNW 20 0,0
15.08.2018 20:00:00 21,4 6,5 5 3 NNW 25 -
15.08.2018 19:00:00 22,6 7,6 5 3 NNW 20 0,0
15.08.2018 18:00:00 22,3 8,4 2 1 NE 20 0,0
15.08.2018 17:00:00 24,2 9,0 5 3 ENE 20 -
15.08.2018 16:00:00 23,8 8,2 9 5 SW 20 0,0
15.08.2018 15:00:00 24,8 9,1 15 8 SSW 20 0,0
15.08.2018 14:00:00 24,0 9,9 9 5 SSW 25 -
15.08.2018 13:00:00 22,3 8,8 11 6 SSW 20 0,0
15.08.2018 12:00:00 21,3 8,9 11 6 SSW 20 0,0
15.08.2018 11:00:00 20,7 8,3 13 7 S 20 -
15.08.2018 10:00:00 19,6 6,0 11 6 S 20 0,0
15.08.2018 09:00:00 17,2 5,2 16 9 SSE 20 0,0
15.08.2018 08:00:00 14,2 3,4 9 5 S 20 -
15.08.2018 07:00:00 14,3 3,4 15 8 S 20 0,0
15.08.2018 06:00:00 13,7 4,3 18 10 S 20 0,0
15.08.2018 05:00:00 13,7 4,3 15 8 S 20 -
15.08.2018 04:00:00 14,0 4,0 11 6 S 20 0,0
15.08.2018 03:00:00 14,8 3,9 8 4 S 20 0,0
15.08.2018 02:00:00 15,0 2,8 2 1 WNW 20 -
15.08.2018 01:00:00 15,2 3,0 5 3 W 20 0,0
15.08.2018 00:00:00 15,9 4,3 9 5 SSW 20 0,0
14.08.2018 23:00:00 15,0 3,2 2 1 NW 20 -
14.08.2018 22:00:00 15,4 3,5 9 5 WNW 20 0,0
14.08.2018 21:00:00 17,6 4,2 9 5 NNW 20 0,0
14.08.2018 20:00:00 19,7 3,0 9 5 NNW 20 -
14.08.2018 19:00:00 20,8 4,8 11 6 NNW 20 0,0
14.08.2018 18:00:00 22,0 6,2 8 4 NW 20 0,0
14.08.2018 17:00:00 21,6 6,7 11 6 NNW 40 -
14.08.2018 16:00:00 22,3 7,7 9 5 NNW 20 0,0
14.08.2018 15:00:00 21,7 7,1 9 5 NNW 20 0,0
14.08.2018 14:00:00 20,6 7,6 8 4 NNW 50 -
14.08.2018 13:00:00 19,5 7,2 9 5 NNW 20 0,0
14.08.2018 12:00:00 18,7 7,8 11 6 NW 20 0,0
14.08.2018 11:00:00 18,4 6,9 9 5 NNW 50 -
14.08.2018 10:00:00 17,1 6,3 5 3 N 20 0,0
14.08.2018 09:00:00 15,7 5,6 5 3 NNE 20 0,0
14.08.2018 08:00:00 13,4 4,8 11 6 N 15 -
14.08.2018 07:00:00 12,9 3,8 16 9 N 20 0,0
14.08.2018 06:00:00 13,2 3,8 13 7 N 20 0,0
14.08.2018 05:00:00 13,5 3,8 13 7 NNE 20 -
14.08.2018 04:00:00 13,7 3,5 9 5 NNE 20 0,0
14.08.2018 03:00:00 13,8 3,8 9 5 N 20 0,0
14.08.2018 02:00:00 14,0 3,4 8 4 NNE 20 -
14.08.2018 01:00:00 14,2 3,0 11 6 NNE 20 0,0
14.08.2018 00:00:00 14,3 4,0 15 8 N 20 0,0
13.08.2018 23:00:00 14,6 3,4 16 9 N 20 -
13.08.2018 22:00:00 14,9 3,1 15 8 N 20 0,0
13.08.2018 21:00:00 16,3 3,4 15 8 N 20 0,0
13.08.2018 20:00:00 18,1 2,4 9 5 N 30 -
13.08.2018 19:00:00 19,6 1,1 9 5 NNW 20 0,0
13.08.2018 18:00:00 20,6 5,0 5 3 NW 20 0,0
13.08.2018 17:00:00 20,7 6,2 11 6 NNW 50 -
13.08.2018 16:00:00 21,0 7,6 9 5 NNW 20 0,0
13.08.2018 15:00:00 20,3 9,8 9 5 NNW 20 0,0
13.08.2018 14:00:00 19,4 12,7 8 4 NW 50 -
13.08.2018 13:00:00 19,1 12,6 2 1 WNW 20 0,0
13.08.2018 12:00:00 19,3 13,2 2 1 NNE 19 0,0
13.08.2018 11:00:00 18,5 7,3 11 6 SSW 40 -
13.08.2018 10:00:00 17,2 8,1 13 7 S 20 0,0
13.08.2018 09:00:00 15,0 8,2 11 6 S 20 0,0
13.08.2018 08:00:00 12,7 7,6 16 9 S 15 -
13.08.2018 07:00:00 11,9 7,2 16 9 S 20 0,0
13.08.2018 06:00:00 12,3 7,2 11 6 SW 20 0,0
13.08.2018 05:00:00 11,9 8,7 5 3 NW 20 -
13.08.2018 04:00:00 12,6 8,7 5 3 NW 20 0,0
13.08.2018 03:00:00 13,0 8,7 8 4 NW 20 0,0
13.08.2018 02:00:00 13,7 6,5 11 6 NNW 20 -
13.08.2018 01:00:00 14,0 6,1 13 7 N 20 0,0
13.08.2018 00:00:00 14,8 4,8 15 8 N 20 0,0
12.08.2018 23:00:00 14,6 5,1 15 8 N 20 -
12.08.2018 22:00:00 16,2 7,7 13 7 NW 19 0,0
12.08.2018 21:00:00 16,5 7,9 15 8 W 18 0,0
12.08.2018 20:00:00 14,6 10,0 16 9 W 15 -
12.08.2018 19:00:00 13,6 10,2 11 6 NNW 3,1 2,0
12.08.2018 18:00:00 17,9 7,9 9 5 NNW 17 0,0
12.08.2018 17:00:00 19,5 11,3 8 4 N 10 -
12.08.2018 16:00:00 22,0 8,8 22 12 SW 16 0,0
12.08.2018 15:00:00 24,4 9,2 18 10 SW 17 0,0
12.08.2018 14:00:00 22,9 8,2 21 11 SW 15 -
12.08.2018 13:00:00 24,6 11,2 15 8 S 16 0,0
12.08.2018 12:00:00 22,6 10,7 13 7 SW 17 0,0
12.08.2018 11:00:00 22,3 8,8 11 6 SW 15 -
12.08.2018 10:00:00 20,5 8,8 9 5 SSW 18 0,0
12.08.2018 09:00:00 18,5 7,9 9 5 SW 18 0,0
12.08.2018 08:00:00 16,8 8,5 11 6 SSW 15 -
12.08.2018 07:00:00 15,6 6,6 13 7 S 19 0,0
12.08.2018 06:00:00 16,0 6,7 11 6 S 18 0,0
12.08.2018 05:00:00 16,1 4,5 15 8 S 19 -
12.08.2018 04:00:00 17,0 3,6 11 6 S 20 0,0
12.08.2018 03:00:00 17,3 3,2 9 5 W 20 0,0
12.08.2018 02:00:00 17,2 4,5 11 6 W 19 -
12.08.2018 01:00:00 18,0 6,2 13 7 SW 18 0,0
12.08.2018 00:00:00 18,4 6,2 15 8 SSW 19 0,0
11.08.2018 23:00:00 18,6 7,1 16 9 SSW 18 -
11.08.2018 22:00:00 19,0 6,8 15 8 SSW 18 0,0
11.08.2018 21:00:00 20,3 6,6 11 6 SSW 19 0,0
11.08.2018 20:00:00 23,2 7,3 15 8 SW 15 -
11.08.2018 19:00:00 24,4 7,1 15 8 SW 19 0,0
11.08.2018 18:00:00 23,7 6,9 9 5 WSW 19 0,0
11.08.2018 17:00:00 23,9 6,6 13 7 S 15 -
11.08.2018 16:00:00 24,5 8,0 13 7 SW 19 0,0
11.08.2018 15:00:00 23,6 8,1 15 8 SW 19 0,0
11.08.2018 14:00:00 23,4 6,2 15 8 S 15 -
11.08.2018 13:00:00 23,8 11,1 11 6 S 19 0,0
11.08.2018 12:00:00 22,7 13,2 13 7 S 16 0,0
11.08.2018 11:00:00 20,6 10,7 5 3 SSW 14 -
11.08.2018 10:00:00 18,7 11,7 8 4 S 15 0,0
11.08.2018 09:00:00 17,0 9,4 8 4 SSW 17 0,0
11.08.2018 08:00:00 14,3 10,1 9 5 S 15 -
11.08.2018 07:00:00 14,4 10,2 11 6 SSW 16 0,0
11.08.2018 06:00:00 13,3 11,4 11 6 SSE 10 0,0
11.08.2018 05:00:00 13,3 12,7 16 9 SSE 2,5 -
11.08.2018 04:00:00 14,1 13,0 18 10 SE - 0,0
11.08.2018 03:00:00 14,7 13,1 9 5 SSW 6 0,0
11.08.2018 02:00:00 15,7 12,3 16 9 SSE 11 -
11.08.2018 01:00:00 16,6 7,5 18 10 ESE 19 0,0

tt = temperature
td = dewpoint
ff = wind speed
dd = wind direction
vv = visibility
rr = precipitation

Next stations